Zion, Virginia
Current Conditions -  °F | °C
As of 6:55 PM on Wednesday 28 Jan 2015 (Local Time) from KGVE Reporting Station
Clear Clear  
Wind Chill: 26°   Ceiling: Unl
Heat Index: 26°   Visibility: 10mi
Dew Point: 15°   Wind: 0mph
Humidity: 62%   Direction: NA
Pressure: 30.28"   Gusts: NA
Location:  38.0919°N, 78.1851°W
Report Text: KGVE 282355Z AUTO 00000KT 10SM CLR M03/M10 A3028 RMK AO1 T10321096 10051 21041
Loading
Personal Weather Stations






























Interactive Weather Map New forecast layout! Learn more

10-Day Weather Forecast

Advertisements
Track Severe Weather on mobile